sensor_id;sensor_type;location;lat;lon;timestamp;pressure;altitude;pressure_sealevel;temperature;humidity
57779;BME280;43608;49.486;9.640;2023-11-19T00:00:17;98532.47;;;6.32;100.00
57779;BME280;43608;49.486;9.640;2023-11-19T00:00:50;98522.78;;;6.31;100.00
57779;BME280;43608;49.486;9.640;2023-11-19T00:01:21;98529.78;;;6.31;100.00
57779;BME280;43608;49.486;9.640;2023-11-19T00:01:52;98515.75;;;6.30;100.00
57779;BME280;43608;49.486;9.640;2023-11-19T00:02:22;98506.00;;;6.20;100.00
57779;BME280;43608;49.486;9.640;2023-11-19T00:02:53;98532.41;;;6.31;100.00
57779;BME280;43608;49.486;9.640;2023-11-19T00:03:23;98521.88;;;6.26;100.00
57779;BME280;43608;49.486;9.640;2023-11-19T00:03:53;98525.41;;;6.30;100.00
57779;BME280;43608;49.486;9.640;2023-11-19T00:04:24;98521.78;;;6.20;100.00
57779;BME280;43608;49.486;9.640;2023-11-19T00:04:54;98523.66;;;6.28;100.00
57779;BME280;43608;49.486;9.640;2023-11-19T00:05:25;98521.88;;;6.29;100.00
57779;BME280;43608;49.486;9.640;2023-11-19T00:05:55;98515.69;;;6.24;100.00
57779;BME280;43608;49.486;9.640;2023-11-19T00:06:25;98519.25;;;6.31;100.00
57779;BME280;43608;49.486;9.640;2023-11-19T00:06:56;98520.09;;;6.26;100.00
57779;BME280;43608;49.486;9.640;2023-11-19T00:07:32;98520.16;;;6.31;100.00
57779;BME280;43608;49.486;9.640;2023-11-19T00:08:02;98500.72;;;6.15;100.00
57779;BME280;43608;49.486;9.640;2023-11-19T00:08:33;98452.13;;;5.85;100.00
57779;BME280;43608;49.486;9.640;2023-11-19T00:09:03;98496.22;;;6.08;100.00
57779;BME280;43608;49.486;9.640;2023-11-19T00:09:34;98518.38;;;6.30;100.00
57779;BME280;43608;49.486;9.640;2023-11-19T00:10:11;98526.28;;;6.30;100.00
57779;BME280;43608;49.486;9.640;2023-11-19T00:10:42;98524.53;;;6.31;100.00
57779;BME280;43608;49.486;9.640;2023-11-19T00:11:12;98512.22;;;6.26;100.00
57779;BME280;43608;49.486;9.640;2023-11-19T00:11:45;98499.88;;;6.19;100.00
57779;BME280;43608;49.486;9.640;2023-11-19T00:12:16;98520.16;;;6.31;100.00
57779;BME280;43608;49.486;9.640;2023-11-19T00:12:48;98525.41;;;6.30;100.00
57779;BME280;43608;49.486;9.640;2023-11-19T00:13:19;98515.75;;;6.27;100.00
57779;BME280;43608;49.486;9.640;2023-11-19T00:13:49;98521.88;;;6.27;100.00
57779;BME280;43608;49.486;9.640;2023-11-19T00:14:19;98513.13;;;6.30;100.00
57779;BME280;43608;49.486;9.640;2023-11-19T00:14:50;98517.53;;;6.30;100.00
57779;BME280;43608;49.486;9.640;2023-11-19T00:15:20;98521.91;;;6.31;100.00
57779;BME280;43608;49.486;9.640;2023-11-19T00:15:51;98517.53;;;6.31;100.00
57779;BME280;43608;49.486;9.640;2023-11-19T00:16:21;98500.72;;;6.18;100.00
57779;BME280;43608;49.486;9.640;2023-11-19T00:16:52;98514.88;;;6.30;100.00
57779;BME280;43608;49.486;9.640;2023-11-19T00:17:23;98506.94;;;6.28;100.00
57779;BME280;43608;49.486;9.640;2023-11-19T00:17:54;98508.72;;;6.29;100.00
57779;BME280;43608;49.486;9.640;2023-11-19T00:18:25;98509.59;;;6.28;100.00
57779;BME280;43608;49.486;9.640;2023-11-19T00:18:55;98506.94;;;6.28;100.00
57779;BME280;43608;49.486;9.640;2023-11-19T00:19:25;98495.56;;;6.27;100.00
57779;BME280;43608;49.486;9.640;2023-11-19T00:19:56;98498.19;;;6.27;100.00
57779;BME280;43608;49.486;9.640;2023-11-19T00:20:26;98499.06;;;6.28;100.00
57779;BME280;43608;49.486;9.640;2023-11-19T00:20:57;98493.78;;;6.28;100.00
57779;BME280;43608;49.486;9.640;2023-11-19T00:21:27;98497.31;;;6.28;100.00
57779;BME280;43608;49.486;9.640;2023-11-19T00:21:58;98501.69;;;6.28;100.00
57779;BME280;43608;49.486;9.640;2023-11-19T00:22:33;98498.19;;;6.26;100.00
57779;BME280;43608;49.486;9.640;2023-11-19T00:23:03;98497.25;;;6.22;100.00
57779;BME280;43608;49.486;9.640;2023-11-19T00:23:33;98465.50;;;6.05;100.00
57779;BME280;43608;49.486;9.640;2023-11-19T00:24:04;98513.97;;;6.27;100.00
57779;BME280;43608;49.486;9.640;2023-11-19T00:24:38;98509.56;;;6.26;100.00
57779;BME280;43608;49.486;9.640;2023-11-19T00:25:09;98506.06;;;6.26;100.00
57779;BME280;43608;49.486;9.640;2023-11-19T00:25:39;98505.16;;;6.21;100.00
57779;BME280;43608;49.486;9.640;2023-11-19T00:26:10;98506.94;;;6.25;100.00
57779;BME280;43608;49.486;9.640;2023-11-19T00:26:40;98498.13;;;6.23;100.00
57779;BME280;43608;49.486;9.640;2023-11-19T00:27:10;98499.91;;;6.24;100.00
57779;BME280;43608;49.486;9.640;2023-11-19T00:27:41;98494.59;;;6.19;100.00
57779;BME280;43608;49.486;9.640;2023-11-19T00:28:14;98505.16;;;6.25;100.00
57779;BME280;43608;49.486;9.640;2023-11-19T00:28:45;98492.88;;;6.23;100.00
57779;BME280;43608;49.486;9.640;2023-11-19T00:29:15;98493.75;;;6.23;100.00
57779;BME280;43608;49.486;9.640;2023-11-19T00:29:45;98481.38;;;6.13;100.00
57779;BME280;43608;49.486;9.640;2023-11-19T00:30:16;98501.66;;;6.25;100.00
57779;BME280;43608;49.486;9.640;2023-11-19T00:30:46;98480.50;;;6.13;100.00
57779;BME280;43608;49.486;9.640;2023-11-19T00:31:17;98508.69;;;6.24;100.00
57779;BME280;43608;49.486;9.640;2023-11-19T00:31:48;98502.53;;;6.25;100.00
57779;BME280;43608;49.486;9.640;2023-11-19T00:32:18;98506.94;;;6.26;100.00
57779;BME280;43608;49.486;9.640;2023-11-19T00:32:48;98495.50;;;6.23;100.00
57779;BME280;43608;49.486;9.640;2023-11-19T00:33:19;98490.22;;;6.20;100.00
57779;BME280;43608;49.486;9.640;2023-11-19T00:33:49;98502.53;;;6.22;100.00
57779;BME280;43608;49.486;9.640;2023-11-19T00:34:19;98499.91;;;6.24;100.00
57779;BME280;43608;49.486;9.640;2023-11-19T00:34:52;98505.22;;;6.27;100.00
57779;BME280;43608;49.486;9.640;2023-11-19T00:35:23;98504.31;;;6.25;100.00
57779;BME280;43608;49.486;9.640;2023-11-19T00:35:53;98501.69;;;6.26;100.00
57779;BME280;43608;49.486;9.640;2023-11-19T00:36:23;98508.72;;;6.27;100.00
57779;BME280;43608;49.486;9.640;2023-11-19T00:36:54;98500.81;;;6.27;100.00
57779;BME280;43608;49.486;9.640;2023-11-19T00:37:25;98484.91;;;6.15;100.00
57779;BME280;43608;49.486;9.640;2023-11-19T00:37:55;98500.81;;;6.27;100.00
57779;BME280;43608;49.486;9.640;2023-11-19T00:38:26;98506.09;;;6.29;100.00
57779;BME280;43608;49.486;9.640;2023-11-19T00:38:56;98500.81;;;6.29;100.00
57779;BME280;43608;49.486;9.640;2023-11-19T00:39:26;98507.84;;;6.28;100.00
57779;BME280;43608;49.486;9.640;2023-11-19T00:39:57;98506.09;;;6.29;100.00
57779;BME280;43608;49.486;9.640;2023-11-19T00:40:28;98506.09;;;6.31;100.00
57779;BME280;43608;49.486;9.640;2023-11-19T00:40:58;98504.34;;;6.30;100.00
57779;BME280;43608;49.486;9.640;2023-11-19T00:41:29;98500.81;;;6.27;100.00
57779;BME280;43608;49.486;9.640;2023-11-19T00:41:59;98502.53;;;6.25;100.00
57779;BME280;43608;49.486;9.640;2023-11-19T00:42:29;98506.06;;;6.26;100.00
57779;BME280;43608;49.486;9.640;2023-11-19T00:43:00;98519.25;;;6.31;100.00
57779;BME280;43608;49.486;9.640;2023-11-19T00:43:30;98492.78;;;6.14;100.00
57779;BME280;43608;49.486;9.640;2023-11-19T00:44:01;98527.16;;;6.31;100.00
57779;BME280;43608;49.486;9.640;2023-11-19T00:44:31;98525.44;;;6.31;100.00
57779;BME280;43608;49.486;9.640;2023-11-19T00:45:01;98523.66;;;6.30;100.00
57779;BME280;43608;49.486;9.640;2023-11-19T00:45:32;98525.44;;;6.31;100.00
57779;BME280;43608;49.486;9.640;2023-11-19T00:46:02;98511.31;;;6.24;100.00
57779;BME280;43608;49.486;9.640;2023-11-19T00:46:33;98528.94;;;6.32;100.00
57779;BME280;43608;49.486;9.640;2023-11-19T00:47:03;98524.56;;;6.32;100.00
57779;BME280;43608;49.486;9.640;2023-11-19T00:47:35;98526.28;;;6.30;100.00
57779;BME280;43608;49.486;9.640;2023-11-19T00:48:05;98511.31;;;6.24;100.00
57779;BME280;43608;49.486;9.640;2023-11-19T00:48:36;98531.56;;;6.33;100.00
57779;BME280;43608;49.486;9.640;2023-11-19T00:49:06;98524.56;;;6.34;100.00
57779;BME280;43608;49.486;9.640;2023-11-19T00:49:36;98519.31;;;6.34;100.00
57779;BME280;43608;49.486;9.640;2023-11-19T00:50:07;98520.19;;;6.34;100.00
57779;BME280;43608;49.486;9.640;2023-11-19T00:50:39;98514.91;;;6.34;100.00
57779;BME280;43608;49.486;9.640;2023-11-19T00:51:16;98509.66;;;6.34;100.00
57779;BME280;43608;49.486;9.640;2023-11-19T00:51:46;98507.03;;;6.34;100.00
57779;BME280;43608;49.486;9.640;2023-11-19T00:52:17;98505.25;;;6.33;100.00
57779;BME280;43608;49.486;9.640;2023-11-19T00:52:48;98502.66;;;6.35;100.00
57779;BME280;43608;49.486;9.640;2023-11-19T00:53:18;98502.66;;;6.35;100.00
57779;BME280;43608;49.486;9.640;2023-11-19T00:53:49;98493.84;;;6.34;100.00
57779;BME280;43608;49.486;9.640;2023-11-19T00:54:19;98470.94;;;6.21;100.00
57779;BME280;43608;49.486;9.640;2023-11-19T00:54:50;98501.75;;;6.34;100.00
57779;BME280;43608;49.486;9.640;2023-11-19T00:55:21;98477.06;;;6.23;100.00
57779;BME280;43608;49.486;9.640;2023-11-19T00:55:51;98489.50;;;6.35;100.00
57779;BME280;43608;49.486;9.640;2023-11-19T00:56:21;98490.34;;;6.34;100.00
57779;BME280;43608;49.486;9.640;2023-11-19T00:56:52;98487.72;;;6.34;100.00
57779;BME280;43608;49.486;9.640;2023-11-19T00:57:22;98484.19;;;6.30;100.00
57779;BME280;43608;49.486;9.640;2023-11-19T00:57:54;98489.47;;;6.33;100.00
57779;BME280;43608;49.486;9.640;2023-11-19T00:58:26;98481.59;;;6.35;100.00
57779;BME280;43608;49.486;9.640;2023-11-19T00:58:57;98503.53;;;6.35;100.00
57779;BME280;43608;49.486;9.640;2023-11-19T00:59:27;98493.84;;;6.34;100.00
57779;BME280;43608;49.486;9.640;2023-11-19T00:59:59;98489.50;;;6.35;100.00
57779;BME280;43608;49.486;9.640;2023-11-19T01:00:29;98487.72;;;6.35;100.00
57779;BME280;43608;49.486;9.640;2023-11-19T01:01:02;98484.19;;;6.33;100.00
57779;BME280;43608;49.486;9.640;2023-11-19T01:01:33;98487.72;;;6.35;100.00
57779;BME280;43608;49.486;9.640;2023-11-19T01:02:03;98489.50;;;6.36;100.00
57779;BME280;43608;49.486;9.640;2023-11-19T01:02:36;98490.38;;;6.35;100.00
57779;BME280;43608;49.486;9.640;2023-11-19T01:03:06;98485.97;;;6.36;100.00
57779;BME280;43608;49.486;9.640;2023-11-19T01:03:37;98483.34;;;6.36;100.00
57779;BME280;43608;49.486;9.640;2023-11-19T01:04:07;98475.44;;;6.34;100.00
57779;BME280;43608;49.486;9.640;2023-11-19T01:04:38;98472.81;;;6.34;100.00
57779;BME280;43608;49.486;9.640;2023-11-19T01:05:09;98471.94;;;6.37;100.00
57779;BME280;43608;49.486;9.640;2023-11-19T01:05:39;98482.47;;;6.37;100.00
57779;BME280;43608;49.486;9.640;2023-11-19T01:06:10;98471.94;;;6.37;100.00
57779;BME280;43608;49.486;9.640;2023-11-19T01:06:40;98477.22;;;6.37;100.00
57779;BME280;43608;49.486;9.640;2023-11-19T01:07:12;98455.16;;;6.25;100.00
57779;BME280;43608;49.486;9.640;2023-11-19T01:07:43;98472.81;;;6.36;100.00
57779;BME280;43608;49.486;9.640;2023-11-19T01:08:13;98481.63;;;6.39;100.00
57779;BME280;43608;49.486;9.640;2023-11-19T01:08:43;98479.84;;;6.38;100.00
57779;BME280;43608;49.486;9.640;2023-11-19T01:09:14;98464.06;;;6.38;100.00
57779;BME280;43608;49.486;9.640;2023-11-19T01:09:48;98466.72;;;6.40;100.00
57779;BME280;43608;49.486;9.640;2023-11-19T01:10:18;98461.47;;;6.40;100.00
57779;BME280;43608;49.486;9.640;2023-11-19T01:10:48;98434.09;;;6.24;100.00
57779;BME280;43608;49.486;9.640;2023-11-19T01:11:20;98464.09;;;6.40;100.00
57779;BME280;43608;49.486;9.640;2023-11-19T01:11:51;98470.22;;;6.40;100.00
57779;BME280;43608;49.486;9.640;2023-11-19T01:12:21;98463.19;;;6.41;100.00
57779;BME280;43608;49.486;9.640;2023-11-19T01:12:51;98466.72;;;6.40;100.00
57779;BME280;43608;49.486;9.640;2023-11-19T01:13:22;98463.19;;;6.41;100.00
57779;BME280;43608;49.486;9.640;2023-11-19T01:13:52;98457.06;;;6.40;100.00
57779;BME280;43608;49.486;9.640;2023-11-19T01:14:23;98460.56;;;6.41;100.00
57779;BME280;43608;49.486;9.640;2023-11-19T01:14:53;98464.97;;;6.42;100.00
57779;BME280;43608;49.486;9.640;2023-11-19T01:15:23;98461.47;;;6.41;100.00
57779;BME280;43608;49.486;9.640;2023-11-19T01:15:54;98457.94;;;6.39;100.00
57779;BME280;43608;49.486;9.640;2023-11-19T01:16:26;98456.16;;;6.35;100.00
57779;BME280;43608;49.486;9.640;2023-11-19T01:16:57;98465.88;;;6.42;100.00
57779;BME280;43608;49.486;9.640;2023-11-19T01:17:27;98476.38;;;6.41;100.00
57779;BME280;43608;49.486;9.640;2023-11-19T01:17:58;98479.03;;;6.42;100.00
57779;BME280;43608;49.486;9.640;2023-11-19T01:18:28;98464.13;;;6.43;100.00
57779;BME280;43608;49.486;9.640;2023-11-19T01:18:58;98466.75;;;6.43;100.00
57779;BME280;43608;49.486;9.640;2023-11-19T01:19:34;98471.13;;;6.42;100.00
57779;BME280;43608;49.486;9.640;2023-11-19T01:20:04;98467.59;;;6.42;100.00
57779;BME280;43608;49.486;9.640;2023-11-19T01:20:36;98463.19;;;6.41;100.00
57779;BME280;43608;49.486;9.640;2023-11-19T01:21:07;98471.13;;;6.42;100.00
57779;BME280;43608;49.486;9.640;2023-11-19T01:21:37;98473.78;;;6.42;100.00
57779;BME280;43608;49.486;9.640;2023-11-19T01:22:07;98472.00;;;6.41;100.00
57779;BME280;43608;49.486;9.640;2023-11-19T01:22:38;98472.00;;;6.43;100.00
57779;BME280;43608;49.486;9.640;2023-11-19T01:23:08;98481.66;;;6.42;100.00
57779;BME280;43608;49.486;9.640;2023-11-19T01:23:38;98411.09;;;6.00;100.00
57779;BME280;43608;49.486;9.640;2023-11-19T01:24:09;98485.19;;;6.43;100.00
57779;BME280;43608;49.486;9.640;2023-11-19T01:24:40;98486.03;;;6.43;100.00
57779;BME280;43608;49.486;9.640;2023-11-19T01:25:10;98461.34;;;6.29;100.00
57779;BME280;43608;49.486;9.640;2023-11-19T01:25:40;98489.59;;;6.45;100.00
57779;BME280;43608;49.486;9.640;2023-11-19T01:26:12;98485.19;;;6.44;100.00
57779;BME280;43608;49.486;9.640;2023-11-19T01:26:46;98479.91;;;6.43;100.00
57779;BME280;43608;49.486;9.640;2023-11-19T01:27:19;98484.31;;;6.47;100.00
57779;BME280;43608;49.486;9.640;2023-11-19T01:27:49;98486.09;;;6.47;100.00
57779;BME280;43608;49.486;9.640;2023-11-19T01:28:22;98486.97;;;6.47;100.00
57779;BME280;43608;49.486;9.640;2023-11-19T01:28:53;98484.31;;;6.47;100.00
57779;BME280;43608;49.486;9.640;2023-11-19T01:29:23;98482.56;;;6.48;100.00
57779;BME280;43608;49.486;9.640;2023-11-19T01:29:54;98478.19;;;6.48;100.00
57779;BME280;43608;49.486;9.640;2023-11-19T01:30:25;98477.34;;;6.49;100.00
57779;BME280;43608;49.486;9.640;2023-11-19T01:30:55;98447.31;;;6.30;100.00
57779;BME280;43608;49.486;9.640;2023-11-19T01:31:26;98483.47;;;6.50;100.00
57779;BME280;43608;49.486;9.640;2023-11-19T01:31:56;98479.94;;;6.48;100.00
57779;BME280;43608;49.486;9.640;2023-11-19T01:32:27;98483.47;;;6.51;100.00
57779;BME280;43608;49.486;9.640;2023-11-19T01:32:57;98479.97;;;6.51;100.00
57779;BME280;43608;49.486;9.640;2023-11-19T01:33:27;98476.44;;;6.47;100.00
57779;BME280;43608;49.486;9.640;2023-11-19T01:33:58;98475.59;;;6.51;100.00
57779;BME280;43608;49.486;9.640;2023-11-19T01:34:28;98487.88;;;6.52;100.00
57779;BME280;43608;49.486;9.640;2023-11-19T01:34:58;98477.28;;;6.48;100.00
57779;BME280;43608;49.486;9.640;2023-11-19T01:35:29;98486.13;;;6.53;100.00
57779;BME280;43608;49.486;9.640;2023-11-19T01:35:59;98461.47;;;6.40;100.00
57779;BME280;43608;49.486;9.640;2023-11-19T01:36:29;98472.00;;;6.43;100.00
57779;BME280;43608;49.486;9.640;2023-11-19T01:37:00;98469.38;;;6.43;100.00
57779;BME280;43608;49.486;9.640;2023-11-19T01:37:30;98476.44;;;6.50;100.00
57779;BME280;43608;49.486;9.640;2023-11-19T01:38:02;98482.63;;;6.54;100.00
57779;BME280;43608;49.486;9.640;2023-11-19T01:38:32;98482.63;;;6.54;100.00
57779;BME280;43608;49.486;9.640;2023-11-19T01:39:03;98463.25;;;6.44;100.00
57779;BME280;43608;49.486;9.640;2023-11-19T01:39:34;98481.78;;;6.56;100.00
57779;BME280;43608;49.486;9.640;2023-11-19T01:40:05;98477.38;;;6.55;100.00
57779;BME280;43608;49.486;9.640;2023-11-19T01:40:37;98487.03;;;6.56;100.00
57779;BME280;43608;49.486;9.640;2023-11-19T01:41:08;98480.91;;;6.57;100.00
57779;BME280;43608;49.486;9.640;2023-11-19T01:41:38;98476.50;;;6.56;100.00
57779;BME280;43608;49.486;9.640;2023-11-19T01:42:09;98473.00;;;6.56;100.00
57779;BME280;43608;49.486;9.640;2023-11-19T01:42:40;98471.25;;;6.58;100.00
57779;BME280;43608;49.486;9.640;2023-11-19T01:43:10;98482.69;;;6.58;100.00
57779;BME280;43608;49.486;9.640;2023-11-19T01:43:45;98466.84;;;6.55;100.00
57779;BME280;43608;49.486;9.640;2023-11-19T01:44:17;98474.78;;;6.58;100.00
57779;BME280;43608;49.486;9.640;2023-11-19T01:45:01;98473.91;;;6.59;100.00
57779;BME280;43608;49.486;9.640;2023-11-19T01:45:31;98471.28;;;6.59;100.00
57779;BME280;43608;49.486;9.640;2023-11-19T01:46:04;98469.53;;;6.60;100.00
57779;BME280;43608;49.486;9.640;2023-11-19T01:46:35;98451.88;;;6.51;100.00
57779;BME280;43608;49.486;9.640;2023-11-19T01:47:06;98473.03;;;6.60;100.00
57779;BME280;43608;49.486;9.640;2023-11-19T01:47:37;98394.56;;;6.16;100.00
57779;BME280;43608;49.486;9.640;2023-11-19T01:48:07;98468.66;;;6.63;100.00
57779;BME280;43608;49.486;9.640;2023-11-19T01:48:45;98469.53;;;6.61;100.00
57779;BME280;43608;49.486;9.640;2023-11-19T01:49:17;98467.78;;;6.62;100.00
57779;BME280;43608;49.486;9.640;2023-11-19T01:49:48;98468.66;;;6.63;100.00
57779;BME280;43608;49.486;9.640;2023-11-19T01:50:18;98466.03;;;6.63;100.00
57779;BME280;43608;49.486;9.640;2023-11-19T01:50:50;98460.75;;;6.63;100.00
57779;BME280;43608;49.486;9.640;2023-11-19T01:51:22;98467.78;;;6.64;100.00
57779;BME280;43608;49.486;9.640;2023-11-19T01:51:53;98458.97;;;6.60;100.00
57779;BME280;43608;49.486;9.640;2023-11-19T01:52:23;98458.97;;;6.60;100.00
57779;BME280;43608;49.486;9.640;2023-11-19T01:52:54;98469.56;;;6.65;100.00
57779;BME280;43608;49.486;9.640;2023-11-19T01:53:28;98460.72;;;6.58;100.00
57779;BME280;43608;49.486;9.640;2023-11-19T01:53:59;98458.13;;;6.64;100.00
57779;BME280;43608;49.486;9.640;2023-11-19T01:54:29;98459.00;;;6.63;100.00
57779;BME280;43608;49.486;9.640;2023-11-19T01:55:00;98406.97;;;6.30;100.00
57779;BME280;43608;49.486;9.640;2023-11-19T01:55:31;98453.78;;;6.65;100.00
57779;BME280;43608;49.486;9.640;2023-11-19T01:56:02;98445.81;;;6.58;100.00
57779;BME280;43608;49.486;9.640;2023-11-19T01:56:33;98452.00;;;6.65;100.00
57779;BME280;43608;49.486;9.640;2023-11-19T01:57:04;98461.69;;;6.66;100.00
57779;BME280;43608;49.486;9.640;2023-11-19T01:57:35;98453.72;;;6.63;100.00
57779;BME280;43608;49.486;9.640;2023-11-19T01:58:07;98453.78;;;6.66;100.00
57779;BME280;43608;49.486;9.640;2023-11-19T01:58:38;98462.53;;;6.67;100.00
57779;BME280;43608;49.486;9.640;2023-11-19T01:59:11;98454.63;;;6.65;100.00
57779;BME280;43608;49.486;9.640;2023-11-19T01:59:43;98463.44;;;6.69;100.00
57779;BME280;43608;49.486;9.640;2023-11-19T02:00:15;98458.19;;;6.67;100.00
57779;BME280;43608;49.486;9.640;2023-11-19T02:00:46;98465.19;;;6.67;100.00
57779;BME280;43608;49.486;9.640;2023-11-19T02:01:17;98467.81;;;6.68;100.00
57779;BME280;43608;49.486;9.640;2023-11-19T02:01:48;98457.22;;;6.60;100.00
57779;BME280;43608;49.486;9.640;2023-11-19T02:02:18;98470.50;;;6.70;100.00
57779;BME280;43608;49.486;9.640;2023-11-19T02:02:52;98467.84;;;6.70;100.00
57779;BME280;43608;49.486;9.640;2023-11-19T02:03:22;98450.22;;;6.61;100.00
57779;BME280;43608;49.486;9.640;2023-11-19T02:03:55;98462.56;;;6.68;100.00
57779;BME280;43608;49.486;9.640;2023-11-19T02:04:28;98429.03;;;6.47;100.00
57779;BME280;43608;49.486;9.640;2023-11-19T02:04:58;98462.59;;;6.71;100.00
57779;BME280;43608;49.486;9.640;2023-11-19T02:05:30;98467.88;;;6.71;100.00
57779;BME280;43608;49.486;9.640;2023-11-19T02:06:02;98451.13;;;6.65;100.00
57779;BME280;43608;49.486;9.640;2023-11-19T02:06:34;98457.31;;;6.70;100.00
57779;BME280;43608;49.486;9.640;2023-11-19T02:07:05;98461.72;;;6.72;100.00
57779;BME280;43608;49.486;9.640;2023-11-19T02:07:35;98444.06;;;6.60;100.00
57779;BME280;43608;49.486;9.640;2023-11-19T02:08:05;98466.09;;;6.73;100.00
57779;BME280;43608;49.486;9.640;2023-11-19T02:08:36;98467.00;;;6.74;100.00
57779;BME280;43608;49.486;9.640;2023-11-19T02:09:08;98467.00;;;6.74;100.00
57779;BME280;43608;49.486;9.640;2023-11-19T02:09:38;98467.88;;;6.74;100.00
57779;BME280;43608;49.486;9.640;2023-11-19T02:10:09;98464.38;;;6.75;100.00
57779;BME280;43608;49.486;9.640;2023-11-19T02:10:44;98465.25;;;6.74;100.00
57779;BME280;43608;49.486;9.640;2023-11-19T02:11:15;98469.63;;;6.75;100.00
57779;BME280;43608;49.486;9.640;2023-11-19T02:11:45;98459.97;;;6.76;100.00
57779;BME280;43608;49.486;9.640;2023-11-19T02:12:19;98468.78;;;6.76;100.00
57779;BME280;43608;49.486;9.640;2023-11-19T02:12:50;98472.28;;;6.77;100.00
57779;BME280;43608;49.486;9.640;2023-11-19T02:13:21;98466.16;;;6.76;100.00
57779;BME280;43608;49.486;9.640;2023-11-19T02:13:52;98475.78;;;6.76;100.00
57779;BME280;43608;49.486;9.640;2023-11-19T02:14:25;98473.16;;;6.77;100.00
57779;BME280;43608;49.486;9.640;2023-11-19T02:14:55;98466.16;;;6.78;100.00
57779;BME280;43608;49.486;9.640;2023-11-19T02:15:26;98445.00;;;6.67;100.00
57779;BME280;43608;49.486;9.640;2023-11-19T02:15:56;98465.28;;;6.81;100.00
57779;BME280;43608;49.486;9.640;2023-11-19T02:16:26;98467.03;;;6.80;100.00
57779;BME280;43608;49.486;9.640;2023-11-19T02:16:58;98460.88;;;6.78;100.00
57779;BME280;43608;49.486;9.640;2023-11-19T02:17:31;98464.44;;;6.82;100.00
57779;BME280;43608;49.486;9.640;2023-11-19T02:18:24;98471.44;;;6.83;100.00
57779;BME280;43608;49.486;9.640;2023-11-19T02:18:57;98462.63;;;6.77;100.00
57779;BME280;43608;49.486;9.640;2023-11-19T02:19:28;98445.88;;;6.69;100.00
57779;BME280;43608;49.486;9.640;2023-11-19T02:19:59;98460.88;;;6.81;100.00
57779;BME280;43608;49.486;9.640;2023-11-19T02:20:29;98468.78;;;6.83;100.00
57779;BME280;43608;49.486;9.640;2023-11-19T02:21:00;98468.84;;;6.84;100.00
57779;BME280;43608;49.486;9.640;2023-11-19T02:21:30;98466.19;;;6.84;100.00
57779;BME280;43608;49.486;9.640;2023-11-19T02:22:00;98453.84;;;6.80;100.00
57779;BME280;43608;49.486;9.640;2023-11-19T02:22:31;98465.31;;;6.85;100.00
57779;BME280;43608;49.486;9.640;2023-11-19T02:23:01;98458.31;;;6.86;100.00
57779;BME280;43608;49.486;9.640;2023-11-19T02:23:32;98464.44;;;6.83;100.00
57779;BME280;43608;49.486;9.640;2023-11-19T02:24:06;98463.56;;;6.87;100.00
57779;BME280;43608;49.486;9.640;2023-11-19T02:24:38;98458.31;;;6.87;100.00
57779;BME280;43608;49.486;9.640;2023-11-19T02:25:20;98462.72;;;6.88;100.00
57779;BME280;43608;49.486;9.640;2023-11-19T02:25:56;98454.81;;;6.88;100.00
57779;BME280;43608;49.486;9.640;2023-11-19T02:27:16;98456.56;;;6.89;100.00
57779;BME280;43608;49.486;9.640;2023-11-19T02:27:57;98447.78;;;6.90;100.00
57779;BME280;43608;49.486;9.640;2023-11-19T02:28:29;98439.81;;;6.83;100.00
57779;BME280;43608;49.486;9.640;2023-11-19T02:29:00;98445.13;;;6.87;100.00
57779;BME280;43608;49.486;9.640;2023-11-19T02:29:30;98444.28;;;6.91;100.00
57779;BME280;43608;49.486;9.640;2023-11-19T02:30:01;98424.00;;;6.80;100.00
57779;BME280;43608;49.486;9.640;2023-11-19T02:30:31;98449.56;;;6.93;100.00
57779;BME280;43608;49.486;9.640;2023-11-19T02:31:02;98444.28;;;6.93;100.00
57779;BME280;43608;49.486;9.640;2023-11-19T02:31:35;98441.69;;;6.94;100.00
57779;BME280;43608;49.486;9.640;2023-11-19T02:32:06;98442.53;;;6.92;100.00
57779;BME280;43608;49.486;9.640;2023-11-19T02:32:41;98439.91;;;6.93;100.00
57779;BME280;43608;49.486;9.640;2023-11-19T02:33:11;98439.06;;;6.96;100.00
57779;BME280;43608;49.486;9.640;2023-11-19T02:33:42;98439.91;;;6.97;100.00
57779;BME280;43608;49.486;9.640;2023-11-19T02:34:13;98381.75;;;6.63;100.00
57779;BME280;43608;49.486;9.640;2023-11-19T02:34:43;98409.97;;;6.81;100.00
57779;BME280;43608;49.486;9.640;2023-11-19T02:35:14;98441.69;;;6.98;100.00
57779;BME280;43608;49.486;9.640;2023-11-19T02:35:44;98433.78;;;6.98;100.00
57779;BME280;43608;49.486;9.640;2023-11-19T02:36:14;98441.69;;;6.99;100.00
57779;BME280;43608;49.486;9.640;2023-11-19T02:36:45;98431.97;;;6.90;100.00
57779;BME280;43608;49.486;9.640;2023-11-19T02:37:17;98433.78;;;6.99;100.00
57779;BME280;43608;49.486;9.640;2023-11-19T02:37:49;98439.06;;;6.99;100.00
57779;BME280;43608;49.486;9.640;2023-11-19T02:38:19;98438.19;;;7.00;100.00
57779;BME280;43608;49.486;9.640;2023-11-19T02:38:51;98439.06;;;7.01;100.00
57779;BME280;43608;49.486;9.640;2023-11-19T02:39:22;98424.09;;;6.95;100.00
57779;BME280;43608;49.486;9.640;2023-11-19T02:39:52;98431.16;;;7.01;100.00
57779;BME280;43608;49.486;9.640;2023-11-19T02:40:23;98428.56;;;7.02;100.00
57779;BME280;43608;49.486;9.640;2023-11-19T02:40:56;98427.66;;;7.03;100.00
57779;BME280;43608;49.486;9.640;2023-11-19T02:41:27;98424.16;;;7.03;100.00
57779;BME280;43608;49.486;9.640;2023-11-19T02:41:57;98419.75;;;7.03;100.00
57779;BME280;43608;49.486;9.640;2023-11-19T02:42:27;98394.22;;;6.87;100.00
57779;BME280;43608;49.486;9.640;2023-11-19T02:42:58;98412.75;;;7.05;100.00
57779;BME280;43608;49.486;9.640;2023-11-19T02:43:28;98410.97;;;7.04;100.00
57779;BME280;43608;49.486;9.640;2023-11-19T02:44:01;98390.75;;;6.99;100.00
57779;BME280;43608;49.486;9.640;2023-11-19T02:44:31;98398.72;;;7.08;100.00
57779;BME280;43608;49.486;9.640;2023-11-19T02:45:02;98392.53;;;7.07;100.00
57779;BME280;43608;49.486;9.640;2023-11-19T02:45:36;98388.16;;;7.08;100.00
57779;BME280;43608;49.486;9.640;2023-11-19T02:46:07;98338.91;;;6.88;100.00